sensor_id;sensor_type;location;lat;lon;timestamp;temperature;humidity
21312;DHT22;18076;52.154;10.570;2022-10-22T00:00:11;12.10;99.90
21312;DHT22;18076;52.154;10.570;2022-10-22T00:02:37;12.10;99.90
21312;DHT22;18076;52.154;10.570;2022-10-22T00:05:03;12.10;99.90
21312;DHT22;18076;52.154;10.570;2022-10-22T00:07:29;12.20;99.90
21312;DHT22;18076;52.154;10.570;2022-10-22T00:09:54;12.20;99.90
21312;DHT22;18076;52.154;10.570;2022-10-22T00:12:20;12.20;99.90
21312;DHT22;18076;52.154;10.570;2022-10-22T00:14:46;12.20;99.90
21312;DHT22;18076;52.154;10.570;2022-10-22T00:17:11;12.20;99.90
21312;DHT22;18076;52.154;10.570;2022-10-22T00:19:37;12.20;99.90
21312;DHT22;18076;52.154;10.570;2022-10-22T00:22:03;12.20;99.90
21312;DHT22;18076;52.154;10.570;2022-10-22T00:24:33;12.20;99.90
21312;DHT22;18076;52.154;10.570;2022-10-22T00:26:59;12.10;99.90
21312;DHT22;18076;52.154;10.570;2022-10-22T00:29:24;12.00;99.90
21312;DHT22;18076;52.154;10.570;2022-10-22T00:31:50;12.00;99.90
21312;DHT22;18076;52.154;10.570;2022-10-22T00:34:16;12.00;99.90
21312;DHT22;18076;52.154;10.570;2022-10-22T00:36:42;12.00;99.90
21312;DHT22;18076;52.154;10.570;2022-10-22T00:39:07;12.00;99.90
21312;DHT22;18076;52.154;10.570;2022-10-22T00:41:33;12.00;99.90
21312;DHT22;18076;52.154;10.570;2022-10-22T00:44:00;12.00;99.90
21312;DHT22;18076;52.154;10.570;2022-10-22T00:46:26;12.00;99.90
21312;DHT22;18076;52.154;10.570;2022-10-22T00:48:52;12.00;99.90
21312;DHT22;18076;52.154;10.570;2022-10-22T00:51:19;12.00;99.90
21312;DHT22;18076;52.154;10.570;2022-10-22T00:53:46;11.90;99.90
21312;DHT22;18076;52.154;10.570;2022-10-22T00:56:13;12.00;99.90
21312;DHT22;18076;52.154;10.570;2022-10-22T00:58:43;12.00;99.90
21312;DHT22;18076;52.154;10.570;2022-10-22T01:01:11;12.00;99.90
21312;DHT22;18076;52.154;10.570;2022-10-22T01:03:38;12.00;99.90
21312;DHT22;18076;52.154;10.570;2022-10-22T01:06:04;12.10;99.90
21312;DHT22;18076;52.154;10.570;2022-10-22T01:31:09;12.10;99.90
21312;DHT22;18076;52.154;10.570;2022-10-22T01:33:36;12.00;99.90
21312;DHT22;18076;52.154;10.570;2022-10-22T01:36:02;11.90;99.90
21312;DHT22;18076;52.154;10.570;2022-10-22T01:38:28;11.90;99.90
21312;DHT22;18076;52.154;10.570;2022-10-22T01:40:54;11.90;99.90
21312;DHT22;18076;52.154;10.570;2022-10-22T01:43:19;11.80;99.90
21312;DHT22;18076;52.154;10.570;2022-10-22T01:45:52;11.80;99.90
21312;DHT22;18076;52.154;10.570;2022-10-22T02:03:55;11.70;99.90
21312;DHT22;18076;52.154;10.570;2022-10-22T02:06:24;11.70;99.90
21312;DHT22;18076;52.154;10.570;2022-10-22T02:08:50;11.80;99.90
21312;DHT22;18076;52.154;10.570;2022-10-22T02:11:16;11.80;99.90
21312;DHT22;18076;52.154;10.570;2022-10-22T02:13:43;11.80;99.90
21312;DHT22;18076;52.154;10.570;2022-10-22T02:16:09;11.80;99.90
21312;DHT22;18076;52.154;10.570;2022-10-22T02:18:39;11.80;99.90
21312;DHT22;18076;52.154;10.570;2022-10-22T02:21:05;11.80;99.90
21312;DHT22;18076;52.154;10.570;2022-10-22T02:23:31;11.80;99.90
21312;DHT22;18076;52.154;10.570;2022-10-22T02:26:06;11.80;99.90
21312;DHT22;18076;52.154;10.570;2022-10-22T02:28:35;11.80;99.90
21312;DHT22;18076;52.154;10.570;2022-10-22T02:31:09;11.80;99.90
21312;DHT22;18076;52.154;10.570;2022-10-22T02:33:38;11.80;99.90
21312;DHT22;18076;52.154;10.570;2022-10-22T02:36:06;11.80;99.90
21312;DHT22;18076;52.154;10.570;2022-10-22T02:38:32;11.80;99.90
21312;DHT22;18076;52.154;10.570;2022-10-22T02:40:58;11.80;99.90
21312;DHT22;18076;52.154;10.570;2022-10-22T02:43:24;11.70;99.90
21312;DHT22;18076;52.154;10.570;2022-10-22T02:45:50;11.70;99.90
21312;DHT22;18076;52.154;10.570;2022-10-22T02:48:15;11.70;99.90
21312;DHT22;18076;52.154;10.570;2022-10-22T02:50:41;11.60;99.90
21312;DHT22;18076;52.154;10.570;2022-10-22T02:53:06;11.60;99.90
21312;DHT22;18076;52.154;10.570;2022-10-22T02:55:32;11.60;99.90
21312;DHT22;18076;52.154;10.570;2022-10-22T02:57:57;11.60;99.90
21312;DHT22;18076;52.154;10.570;2022-10-22T03:00:23;11.60;99.90
21312;DHT22;18076;52.154;10.570;2022-10-22T03:02:48;11.60;99.90
21312;DHT22;18076;52.154;10.570;2022-10-22T03:05:14;11.60;99.90
21312;DHT22;18076;52.154;10.570;2022-10-22T03:07:39;11.60;99.90
21312;DHT22;18076;52.154;10.570;2022-10-22T03:10:05;11.60;99.90
21312;DHT22;18076;52.154;10.570;2022-10-22T03:12:31;11.60;99.90
21312;DHT22;18076;52.154;10.570;2022-10-22T03:14:56;11.70;99.90
21312;DHT22;18076;52.154;10.570;2022-10-22T03:17:22;11.70;99.90
21312;DHT22;18076;52.154;10.570;2022-10-22T03:19:47;11.70;99.90
21312;DHT22;18076;52.154;10.570;2022-10-22T03:22:22;11.80;99.90
21312;DHT22;18076;52.154;10.570;2022-10-22T03:24:49;11.80;99.90
21312;DHT22;18076;52.154;10.570;2022-10-22T03:27:17;11.80;99.90
21312;DHT22;18076;52.154;10.570;2022-10-22T03:29:43;11.80;99.90
21312;DHT22;18076;52.154;10.570;2022-10-22T03:32:11;11.80;99.90
21312;DHT22;18076;52.154;10.570;2022-10-22T03:34:37;11.80;99.90
21312;DHT22;18076;52.154;10.570;2022-10-22T03:37:02;11.80;99.90
21312;DHT22;18076;52.154;10.570;2022-10-22T03:39:28;11.70;99.90
21312;DHT22;18076;52.154;10.570;2022-10-22T03:41:56;11.70;99.90
21312;DHT22;18076;52.154;10.570;2022-10-22T03:44:21;11.60;99.90
21312;DHT22;18076;52.154;10.570;2022-10-22T03:46:47;11.60;99.90
21312;DHT22;18076;52.154;10.570;2022-10-22T03:49:13;11.60;99.90
21312;DHT22;18076;52.154;10.570;2022-10-22T03:51:38;11.60;99.90
21312;DHT22;18076;52.154;10.570;2022-10-22T03:54:04;11.50;99.90
21312;DHT22;18076;52.154;10.570;2022-10-22T03:56:30;11.50;99.90
21312;DHT22;18076;52.154;10.570;2022-10-22T03:58:56;11.50;99.90
21312;DHT22;18076;52.154;10.570;2022-10-22T04:01:22;11.50;99.90
21312;DHT22;18076;52.154;10.570;2022-10-22T04:03:47;11.50;99.90
21312;DHT22;18076;52.154;10.570;2022-10-22T04:06:13;11.50;99.90
21312;DHT22;18076;52.154;10.570;2022-10-22T04:08:39;11.50;99.90
21312;DHT22;18076;52.154;10.570;2022-10-22T04:11:05;11.60;99.90
21312;DHT22;18076;52.154;10.570;2022-10-22T04:13:31;11.70;99.90
21312;DHT22;18076;52.154;10.570;2022-10-22T04:16:13;11.60;99.90
21312;DHT22;18076;52.154;10.570;2022-10-22T04:18:39;11.60;99.90
21312;DHT22;18076;52.154;10.570;2022-10-22T04:21:08;11.50;99.90
21312;DHT22;18076;52.154;10.570;2022-10-22T04:23:34;11.40;99.90
21312;DHT22;18076;52.154;10.570;2022-10-22T04:26:01;11.40;99.90
21312;DHT22;18076;52.154;10.570;2022-10-22T04:28:26;11.40;99.90
21312;DHT22;18076;52.154;10.570;2022-10-22T04:30:52;11.40;99.90
21312;DHT22;18076;52.154;10.570;2022-10-22T04:33:17;11.50;99.90
21312;DHT22;18076;52.154;10.570;2022-10-22T04:35:43;11.40;99.90
21312;DHT22;18076;52.154;10.570;2022-10-22T04:38:09;11.40;99.90
21312;DHT22;18076;52.154;10.570;2022-10-22T04:40:34;11.40;99.90
21312;DHT22;18076;52.154;10.570;2022-10-22T04:43:00;11.40;99.90
21312;DHT22;18076;52.154;10.570;2022-10-22T04:45:25;11.40;99.90
21312;DHT22;18076;52.154;10.570;2022-10-22T04:47:51;11.40;99.90
21312;DHT22;18076;52.154;10.570;2022-10-22T04:50:16;11.40;99.90
21312;DHT22;18076;52.154;10.570;2022-10-22T04:52:42;11.50;99.90
21312;DHT22;18076;52.154;10.570;2022-10-22T04:55:07;11.50;99.90
21312;DHT22;18076;52.154;10.570;2022-10-22T04:57:33;11.50;99.90
21312;DHT22;18076;52.154;10.570;2022-10-22T04:59:58;11.50;99.90
21312;DHT22;18076;52.154;10.570;2022-10-22T05:02:24;11.50;99.90
21312;DHT22;18076;52.154;10.570;2022-10-22T05:04:49;11.50;99.90
21312;DHT22;18076;52.154;10.570;2022-10-22T05:07:15;11.50;99.90
21312;DHT22;18076;52.154;10.570;2022-10-22T05:09:41;11.50;99.90
21312;DHT22;18076;52.154;10.570;2022-10-22T05:12:06;11.50;99.90
21312;DHT22;18076;52.154;10.570;2022-10-22T05:14:32;11.50;99.90
21312;DHT22;18076;52.154;10.570;2022-10-22T05:16:57;11.40;99.90
21312;DHT22;18076;52.154;10.570;2022-10-22T05:19:26;11.40;99.90
21312;DHT22;18076;52.154;10.570;2022-10-22T05:21:53;11.40;99.90
21312;DHT22;18076;52.154;10.570;2022-10-22T05:24:19;11.40;99.90
21312;DHT22;18076;52.154;10.570;2022-10-22T05:26:44;11.40;99.90
21312;DHT22;18076;52.154;10.570;2022-10-22T05:29:10;11.40;99.90
21312;DHT22;18076;52.154;10.570;2022-10-22T05:31:36;11.40;99.90
21312;DHT22;18076;52.154;10.570;2022-10-22T05:34:03;11.30;99.90
21312;DHT22;18076;52.154;10.570;2022-10-22T05:36:28;11.30;99.90
21312;DHT22;18076;52.154;10.570;2022-10-22T05:38:54;11.30;99.90
21312;DHT22;18076;52.154;10.570;2022-10-22T05:41:22;11.30;99.90
21312;DHT22;18076;52.154;10.570;2022-10-22T05:43:48;11.40;99.90
21312;DHT22;18076;52.154;10.570;2022-10-22T05:46:15;11.30;99.90
21312;DHT22;18076;52.154;10.570;2022-10-22T05:48:42;11.30;99.90
21312;DHT22;18076;52.154;10.570;2022-10-22T05:51:09;11.20;99.90
21312;DHT22;18076;52.154;10.570;2022-10-22T05:53:36;11.30;99.90
21312;DHT22;18076;52.154;10.570;2022-10-22T05:56:02;11.30;99.90
21312;DHT22;18076;52.154;10.570;2022-10-22T05:58:28;11.30;99.90
21312;DHT22;18076;52.154;10.570;2022-10-22T06:00:54;11.30;99.90
21312;DHT22;18076;52.154;10.570;2022-10-22T06:03:24;11.30;99.90
21312;DHT22;18076;52.154;10.570;2022-10-22T06:05:50;11.30;99.90
21312;DHT22;18076;52.154;10.570;2022-10-22T06:08:15;11.40;99.90
21312;DHT22;18076;52.154;10.570;2022-10-22T06:10:41;11.50;99.90
21312;DHT22;18076;52.154;10.570;2022-10-22T06:13:07;11.40;99.90
21312;DHT22;18076;52.154;10.570;2022-10-22T06:15:33;11.40;99.90
21312;DHT22;18076;52.154;10.570;2022-10-22T06:17:58;11.40;99.90
21312;DHT22;18076;52.154;10.570;2022-10-22T06:20:24;11.40;99.90
21312;DHT22;18076;52.154;10.570;2022-10-22T06:22:50;11.40;99.90
21312;DHT22;18076;52.154;10.570;2022-10-22T06:25:15;11.50;99.90
21312;DHT22;18076;52.154;10.570;2022-10-22T06:27:41;11.40;99.90
21312;DHT22;18076;52.154;10.570;2022-10-22T06:30:07;11.50;99.90
21312;DHT22;18076;52.154;10.570;2022-10-22T06:32:32;11.50;99.90
21312;DHT22;18076;52.154;10.570;2022-10-22T06:34:58;11.50;99.90
21312;DHT22;18076;52.154;10.570;2022-10-22T06:37:23;11.50;99.90
21312;DHT22;18076;52.154;10.570;2022-10-22T06:39:49;11.60;99.90
21312;DHT22;18076;52.154;10.570;2022-10-22T06:42:15;11.70;99.90
21312;DHT22;18076;52.154;10.570;2022-10-22T06:44:41;11.70;99.90
21312;DHT22;18076;52.154;10.570;2022-10-22T06:47:06;11.70;99.90
21312;DHT22;18076;52.154;10.570;2022-10-22T06:49:32;11.70;99.90
21312;DHT22;18076;52.154;10.570;2022-10-22T06:51:57;11.70;99.90
21312;DHT22;18076;52.154;10.570;2022-10-22T06:54:23;11.70;99.90
21312;DHT22;18076;52.154;10.570;2022-10-22T06:56:48;11.80;99.90
21312;DHT22;18076;52.154;10.570;2022-10-22T06:59:14;11.80;99.90
21312;DHT22;18076;52.154;10.570;2022-10-22T07:01:39;11.70;99.90
21312;DHT22;18076;52.154;10.570;2022-10-22T07:04:06;11.70;99.90
21312;DHT22;18076;52.154;10.570;2022-10-22T07:06:33;11.80;99.90
21312;DHT22;18076;52.154;10.570;2022-10-22T07:08:58;11.80;99.90
21312;DHT22;18076;52.154;10.570;2022-10-22T07:11:27;11.80;99.90
21312;DHT22;18076;52.154;10.570;2022-10-22T07:13:53;11.90;99.90
21312;DHT22;18076;52.154;10.570;2022-10-22T07:16:19;11.80;99.90
21312;DHT22;18076;52.154;10.570;2022-10-22T07:18:45;12.00;99.90
21312;DHT22;18076;52.154;10.570;2022-10-22T07:21:11;12.00;99.90
21312;DHT22;18076;52.154;10.570;2022-10-22T07:23:37;12.00;99.90
21312;DHT22;18076;52.154;10.570;2022-10-22T07:26:03;12.10;99.90
21312;DHT22;18076;52.154;10.570;2022-10-22T07:28:31;12.10;99.90
21312;DHT22;18076;52.154;10.570;2022-10-22T07:30:58;12.20;99.90
21312;DHT22;18076;52.154;10.570;2022-10-22T07:33:23;12.30;99.90
21312;DHT22;18076;52.154;10.570;2022-10-22T07:35:49;12.40;99.90
21312;DHT22;18076;52.154;10.570;2022-10-22T07:38:15;12.50;99.90
21312;DHT22;18076;52.154;10.570;2022-10-22T07:40:40;12.60;99.90
21312;DHT22;18076;52.154;10.570;2022-10-22T07:43:06;12.70;99.90
21312;DHT22;18076;52.154;10.570;2022-10-22T07:45:31;12.80;99.90
21312;DHT22;18076;52.154;10.570;2022-10-22T07:47:58;13.00;99.90
21312;DHT22;18076;52.154;10.570;2022-10-22T07:50:25;13.20;99.90
21312;DHT22;18076;52.154;10.570;2022-10-22T07:52:50;13.30;99.90
21312;DHT22;18076;52.154;10.570;2022-10-22T07:55:16;13.70;99.90
21312;DHT22;18076;52.154;10.570;2022-10-22T07:57:41;14.00;99.90
21312;DHT22;18076;52.154;10.570;2022-10-22T08:00:07;14.40;99.90
21312;DHT22;18076;52.154;10.570;2022-10-22T08:02:33;15.40;99.90
21312;DHT22;18076;52.154;10.570;2022-10-22T08:04:59;16.90;99.90
21312;DHT22;18076;52.154;10.570;2022-10-22T08:07:24;18.00;99.90
21312;DHT22;18076;52.154;10.570;2022-10-22T08:09:50;18.60;99.90
21312;DHT22;18076;52.154;10.570;2022-10-22T08:12:15;18.70;99.90
21312;DHT22;18076;52.154;10.570;2022-10-22T08:14:41;18.60;99.90
21312;DHT22;18076;52.154;10.570;2022-10-22T08:17:06;17.90;99.90
21312;DHT22;18076;52.154;10.570;2022-10-22T08:19:32;17.30;99.90
21312;DHT22;18076;52.154;10.570;2022-10-22T08:21:59;16.80;99.90
21312;DHT22;18076;52.154;10.570;2022-10-22T08:24:25;16.40;99.90
21312;DHT22;18076;52.154;10.570;2022-10-22T08:26:51;16.10;99.90
21312;DHT22;18076;52.154;10.570;2022-10-22T08:29:18;16.50;99.90
21312;DHT22;18076;52.154;10.570;2022-10-22T08:31:45;17.50;99.90
21312;DHT22;18076;52.154;10.570;2022-10-22T08:34:11;18.60;99.90
21312;DHT22;18076;52.154;10.570;2022-10-22T08:36:37;19.60;99.90
21312;DHT22;18076;52.154;10.570;2022-10-22T08:39:02;20.30;99.90
21312;DHT22;18076;52.154;10.570;2022-10-22T08:41:28;20.90;99.90
21312;DHT22;18076;52.154;10.570;2022-10-22T08:49:26;21.50;99.90
21312;DHT22;18076;52.154;10.570;2022-10-22T08:51:53;22.00;99.90
21312;DHT22;18076;52.154;10.570;2022-10-22T08:56:48;23.00;99.90
21312;DHT22;18076;52.154;10.570;2022-10-22T09:01:41;23.70;99.90
21312;DHT22;18076;52.154;10.570;2022-10-22T09:04:19;23.80;99.90
21312;DHT22;18076;52.154;10.570;2022-10-22T09:06:50;24.00;99.90
21312;DHT22;18076;52.154;10.570;2022-10-22T09:09:17;24.30;99.90
21312;DHT22;18076;52.154;10.570;2022-10-22T09:11:44;23.80;99.90
21312;DHT22;18076;52.154;10.570;2022-10-22T09:14:11;23.80;99.90
21312;DHT22;18076;52.154;10.570;2022-10-22T09:19:21;25.20;99.90
21312;DHT22;18076;52.154;10.570;2022-10-22T09:27:26;25.90;99.90
21312;DHT22;18076;52.154;10.570;2022-10-22T09:29:52;26.30;99.90
21312;DHT22;18076;52.154;10.570;2022-10-22T09:32:18;26.60;99.90
21312;DHT22;18076;52.154;10.570;2022-10-22T09:34:44;26.80;99.90
21312;DHT22;18076;52.154;10.570;2022-10-22T09:37:10;27.30;99.90
21312;DHT22;18076;52.154;10.570;2022-10-22T09:39:37;27.70;99.90
21312;DHT22;18076;52.154;10.570;2022-10-22T09:42:03;27.60;99.90
21312;DHT22;18076;52.154;10.570;2022-10-22T09:44:31;27.20;99.90
21312;DHT22;18076;52.154;10.570;2022-10-22T09:46:57;26.90;99.90
21312;DHT22;18076;52.154;10.570;2022-10-22T09:49:22;26.90;99.90
21312;DHT22;18076;52.154;10.570;2022-10-22T09:51:49;26.80;99.90
21312;DHT22;18076;52.154;10.570;2022-10-22T09:56:51;26.90;99.90
21312;DHT22;18076;52.154;10.570;2022-10-22T09:59:18;27.20;99.90
21312;DHT22;18076;52.154;10.570;2022-10-22T10:01:43;27.40;99.90
21312;DHT22;18076;52.154;10.570;2022-10-22T10:04:10;27.50;99.90
21312;DHT22;18076;52.154;10.570;2022-10-22T10:06:37;27.70;99.90
21312;DHT22;18076;52.154;10.570;2022-10-22T10:11:36;27.60;99.90
21312;DHT22;18076;52.154;10.570;2022-10-22T10:14:17;27.50;99.90
21312;DHT22;18076;52.154;10.570;2022-10-22T10:16:54;26.90;99.90
21312;DHT22;18076;52.154;10.570;2022-10-22T10:19:37;26.90;99.90
21312;DHT22;18076;52.154;10.570;2022-10-22T10:24:58;25.90;99.90
21312;DHT22;18076;52.154;10.570;2022-10-22T10:37:42;25.20;99.90
21312;DHT22;18076;52.154;10.570;2022-10-22T10:40:13;25.10;99.90
21312;DHT22;18076;52.154;10.570;2022-10-22T10:45:12;23.30;99.90
21312;DHT22;18076;52.154;10.570;2022-10-22T10:52:39;20.80;99.90
21312;DHT22;18076;52.154;10.570;2022-10-22T10:55:17;21.30;99.90
21312;DHT22;18076;52.154;10.570;2022-10-22T11:00:17;22.50;99.90
21312;DHT22;18076;52.154;10.570;2022-10-22T11:02:56;23.10;99.90
21312;DHT22;18076;52.154;10.570;2022-10-22T11:08:08;23.20;99.90
21312;DHT22;18076;52.154;10.570;2022-10-22T11:13:02;23.10;99.90
21312;DHT22;18076;52.154;10.570;2022-10-22T11:15:34;23.50;99.90
21312;DHT22;18076;52.154;10.570;2022-10-22T11:18:03;24.10;99.90
21312;DHT22;18076;52.154;10.570;2022-10-22T11:23:01;24.20;99.90
21312;DHT22;18076;52.154;10.570;2022-10-22T11:25:30;24.40;99.90
21312;DHT22;18076;52.154;10.570;2022-10-22T11:28:00;24.40;99.90
21312;DHT22;18076;52.154;10.570;2022-10-22T11:30:29;24.80;99.90
21312;DHT22;18076;52.154;10.570;2022-10-22T11:32:56;24.70;99.90
21312;DHT22;18076;52.154;10.570;2022-10-22T11:35:23;24.30;99.90
21312;DHT22;18076;52.154;10.570;2022-10-22T11:37:50;23.90;99.90
21312;DHT22;18076;52.154;10.570;2022-10-22T11:40:20;23.80;99.90
21312;DHT22;18076;52.154;10.570;2022-10-22T11:42:51;23.80;99.90
21312;DHT22;18076;52.154;10.570;2022-10-22T11:58:00;24.00;99.90
21312;DHT22;18076;52.154;10.570;2022-10-22T12:00:34;23.80;99.90
21312;DHT22;18076;52.154;10.570;2022-10-22T12:03:15;23.40;99.90
21312;DHT22;18076;52.154;10.570;2022-10-22T12:05:44;23.70;99.90
21312;DHT22;18076;52.154;10.570;2022-10-22T12:08:19;24.00;99.90
21312;DHT22;18076;52.154;10.570;2022-10-22T12:13:24;24.00;99.90
21312;DHT22;18076;52.154;10.570;2022-10-22T12:15:51;23.60;99.90
21312;DHT22;18076;52.154;10.570;2022-10-22T12:18:18;23.20;99.90
21312;DHT22;18076;52.154;10.570;2022-10-22T12:20:51;22.70;99.90
21312;DHT22;18076;52.154;10.570;2022-10-22T12:23:17;22.60;99.90
21312;DHT22;18076;52.154;10.570;2022-10-22T12:25:43;23.00;99.90
21312;DHT22;18076;52.154;10.570;2022-10-22T12:28:11;23.20;99.90
21312;DHT22;18076;52.154;10.570;2022-10-22T12:30:37;23.20;99.90
21312;DHT22;18076;52.154;10.570;2022-10-22T12:33:04;23.00;99.90
21312;DHT22;18076;52.154;10.570;2022-10-22T12:35:31;22.90;99.90
21312;DHT22;18076;52.154;10.570;2022-10-22T12:37:59;23.10;99.90
21312;DHT22;18076;52.154;10.570;2022-10-22T12:40:26;23.00;99.90
21312;DHT22;18076;52.154;10.570;2022-10-22T12:45:18;22.70;99.90
21312;DHT22;18076;52.154;10.570;2022-10-22T12:47:50;22.10;99.90
21312;DHT22;18076;52.154;10.570;2022-10-22T12:50:17;21.70;99.90
21312;DHT22;18076;52.154;10.570;2022-10-22T12:52:44;21.20;99.90
21312;DHT22;18076;52.154;10.570;2022-10-22T12:55:14;20.70;99.90
21312;DHT22;18076;52.154;10.570;2022-10-22T12:57:39;20.40;99.90
21312;DHT22;18076;52.154;10.570;2022-10-22T13:00:17;20.30;99.90
21312;DHT22;18076;52.154;10.570;2022-10-22T13:02:43;20.80;99.90
21312;DHT22;18076;52.154;10.570;2022-10-22T13:05:14;21.30;99.90
21312;DHT22;18076;52.154;10.570;2022-10-22T13:07:41;21.60;99.90
21312;DHT22;18076;52.154;10.570;2022-10-22T13:10:14;21.80;99.90
21312;DHT22;18076;52.154;10.570;2022-10-22T13:12:43;22.00;99.90
21312;DHT22;18076;52.154;10.570;2022-10-22T13:15:29;22.00;99.90
21312;DHT22;18076;52.154;10.570;2022-10-22T13:20:28;22.00;99.90
21312;DHT22;18076;52.154;10.570;2022-10-22T13:22:57;22.00;99.90
21312;DHT22;18076;52.154;10.570;2022-10-22T13:25:34;21.90;99.90
21312;DHT22;18076;52.154;10.570;2022-10-22T13:28:01;21.70;99.90
21312;DHT22;18076;52.154;10.570;2022-10-22T13:30:35;21.50;99.90
21312;DHT22;18076;52.154;10.570;2022-10-22T13:33:02;21.20;99.90
21312;DHT22;18076;52.154;10.570;2022-10-22T13:35:32;20.90;99.90
21312;DHT22;18076;52.154;10.570;2022-10-22T13:37:58;20.70;99.90
21312;DHT22;18076;52.154;10.570;2022-10-22T13:40:24;20.60;99.90
21312;DHT22;18076;52.154;10.570;2022-10-22T13:42:50;20.50;99.90
21312;DHT22;18076;52.154;10.570;2022-10-22T13:45:16;20.40;99.90
21312;DHT22;18076;52.154;10.570;2022-10-22T13:47:47;20.20;99.90
21312;DHT22;18076;52.154;10.570;2022-10-22T13:50:15;20.00;99.90
21312;DHT22;18076;52.154;10.570;2022-10-22T13:52:42;19.80;99.90
21312;DHT22;18076;52.154;10.570;2022-10-22T13:55:13;19.70;99.90
21312;DHT22;18076;52.154;10.570;2022-10-22T13:57:39;19.70;99.90
21312;DHT22;18076;52.154;10.570;2022-10-22T14:00:04;19.70;99.90
21312;DHT22;18076;52.154;10.570;2022-10-22T14:02:30;19.80;99.90
21312;DHT22;18076;52.154;10.570;2022-10-22T14:04:56;20.00;99.90
21312;DHT22;18076;52.154;10.570;2022-10-22T14:07:27;20.40;99.90
21312;DHT22;18076;52.154;10.570;2022-10-22T14:09:53;20.80;99.90
21312;DHT22;18076;52.154;10.570;2022-10-22T14:12:18;21.10;99.90
21312;DHT22;18076;52.154;10.570;2022-10-22T14:14:44;21.40;99.90
21312;DHT22;18076;52.154;10.570;2022-10-22T14:17:13;21.70;99.90
21312;DHT22;18076;52.154;10.570;2022-10-22T14:19:43;21.80;99.90
21312;DHT22;18076;52.154;10.570;2022-10-22T14:22:18;21.90;99.90
21312;DHT22;18076;52.154;10.570;2022-10-22T14:24:44;21.60;99.90
21312;DHT22;18076;52.154;10.570;2022-10-22T14:27:11;21.20;99.90
21312;DHT22;18076;52.154;10.570;2022-10-22T14:29:37;21.00;99.90
21312;DHT22;18076;52.154;10.570;2022-10-22T14:32:03;20.60;99.90
21312;DHT22;18076;52.154;10.570;2022-10-22T14:34:30;20.50;99.90
21312;DHT22;18076;52.154;10.570;2022-10-22T14:36:56;20.20;99.90
21312;DHT22;18076;52.154;10.570;2022-10-22T14:39:21;19.90;99.90
21312;DHT22;18076;52.154;10.570;2022-10-22T14:41:47;19.80;99.90
21312;DHT22;18076;52.154;10.570;2022-10-22T14:44:13;19.70;99.90
21312;DHT22;18076;52.154;10.570;2022-10-22T14:46:39;19.60;99.90
21312;DHT22;18076;52.154;10.570;2022-10-22T14:49:09;19.50;99.90
21312;DHT22;18076;52.154;10.570;2022-10-22T14:51:39;19.40;99.90
21312;DHT22;18076;52.154;10.570;2022-10-22T14:54:04;19.30;99.90
21312;DHT22;18076;52.154;10.570;2022-10-22T14:56:30;19.20;99.90
21312;DHT22;18076;52.154;10.570;2022-10-22T14:58:55;19.20;99.90
21312;DHT22;18076;52.154;10.570;2022-10-22T15:01:21;19.20;99.90
21312;DHT22;18076;52.154;10.570;2022-10-22T15:03:47;18.80;99.90
21312;DHT22;18076;52.154;10.570;2022-10-22T15:06:12;18.30;99.90
21312;DHT22;18076;52.154;10.570;2022-10-22T15:08:38;18.00;99.90
21312;DHT22;18076;52.154;10.570;2022-10-22T15:11:04;17.80;99.90
21312;DHT22;18076;52.154;10.570;2022-10-22T15:13:30;17.70;99.90
21312;DHT22;18076;52.154;10.570;2022-10-22T15:15:56;17.70;99.90
21312;DHT22;18076;52.154;10.570;2022-10-22T15:18:22;17.80;99.90
21312;DHT22;18076;52.154;10.570;2022-10-22T15:20:55;17.90;99.90
21312;DHT22;18076;52.154;10.570;2022-10-22T15:23:21;17.90;99.90
21312;DHT22;18076;52.154;10.570;2022-10-22T15:25:46;17.90;99.90
21312;DHT22;18076;52.154;10.570;2022-10-22T15:28:12;17.80;99.90
21312;DHT22;18076;52.154;10.570;2022-10-22T15:30:38;17.70;99.90
21312;DHT22;18076;52.154;10.570;2022-10-22T15:33:03;17.70;99.90
21312;DHT22;18076;52.154;10.570;2022-10-22T15:35:29;17.70;99.90
21312;DHT22;18076;52.154;10.570;2022-10-22T15:37:54;17.60;99.90
21312;DHT22;18076;52.154;10.570;2022-10-22T15:40:20;17.40;99.90
21312;DHT22;18076;52.154;10.570;2022-10-22T15:42:45;17.40;99.90
21312;DHT22;18076;52.154;10.570;2022-10-22T15:45:11;17.30;99.90
21312;DHT22;18076;52.154;10.570;2022-10-22T15:47:36;17.30;99.90
21312;DHT22;18076;52.154;10.570;2022-10-22T15:50:02;17.20;99.90
21312;DHT22;18076;52.154;10.570;2022-10-22T15:52:30;17.10;99.90
21312;DHT22;18076;52.154;10.570;2022-10-22T15:54:55;17.00;99.90
21312;DHT22;18076;52.154;10.570;2022-10-22T15:57:21;17.00;99.90
21312;DHT22;18076;52.154;10.570;2022-10-22T15:59:48;16.90;99.90
21312;DHT22;18076;52.154;10.570;2022-10-22T16:02:16;16.80;99.90
21312;DHT22;18076;52.154;10.570;2022-10-22T16:04:41;16.70;99.90
21312;DHT22;18076;52.154;10.570;2022-10-22T16:07:07;16.60;99.90
21312;DHT22;18076;52.154;10.570;2022-10-22T16:09:32;16.60;99.90
21312;DHT22;18076;52.154;10.570;2022-10-22T16:11:58;16.50;99.90
21312;DHT22;18076;52.154;10.570;2022-10-22T16:14:23;16.50;99.90
21312;DHT22;18076;52.154;10.570;2022-10-22T16:16:50;16.40;99.90
21312;DHT22;18076;52.154;10.570;2022-10-22T16:19:16;16.40;99.90
21312;DHT22;18076;52.154;10.570;2022-10-22T16:21:42;16.40;99.90
21312;DHT22;18076;52.154;10.570;2022-10-22T16:24:09;16.30;99.90
21312;DHT22;18076;52.154;10.570;2022-10-22T16:26:35;16.30;99.90
21312;DHT22;18076;52.154;10.570;2022-10-22T16:29:00;16.20;99.90
21312;DHT22;18076;52.154;10.570;2022-10-22T16:31:26;16.20;99.90
21312;DHT22;18076;52.154;10.570;2022-10-22T16:33:51;16.10;99.90
21312;DHT22;18076;52.154;10.570;2022-10-22T16:36:18;16.00;99.90
21312;DHT22;18076;52.154;10.570;2022-10-22T16:38:44;16.00;99.90
21312;DHT22;18076;52.154;10.570;2022-10-22T16:41:11;15.90;99.90
21312;DHT22;18076;52.154;10.570;2022-10-22T16:43:38;15.90;99.90
21312;DHT22;18076;52.154;10.570;2022-10-22T16:46:04;15.90;99.90
21312;DHT22;18076;52.154;10.570;2022-10-22T16:48:30;15.90;99.90
21312;DHT22;18076;52.154;10.570;2022-10-22T16:50:56;15.90;99.90
21312;DHT22;18076;52.154;10.570;2022-10-22T16:53:22;15.90;99.90
21312;DHT22;18076;52.154;10.570;2022-10-22T16:55:48;15.80;99.90
21312;DHT22;18076;52.154;10.570;2022-10-22T16:58:13;15.70;99.90
21312;DHT22;18076;52.154;10.570;2022-10-22T17:00:39;15.70;99.90
21312;DHT22;18076;52.154;10.570;2022-10-22T17:03:04;15.70;99.90
21312;DHT22;18076;52.154;10.570;2022-10-22T17:05:34;15.60;99.90